Decoded Metar for LEHC (HUESCA in SPAIN) (IATA:N/A) | Meteo·Mobile Aviation Weather
aviador You're here:

LEHC Decoded Metar

HUESCA in SPAIN
Report Time2018-12-16 11:00:00
UTC Time2018-12-16 11:28:49
Flight Rules mvfr MVFR
WindVRB at 01 kt
Visibility9999 m
Phenomena:N/A
Clouds:Broken 025 Hf
Expected CloudBase > 400 ft AGL from Temp-Dew spread
Ceiling2,500 ft
Temp09°C (ISA -2)
Dew Point08°C (94% RH)
AAT8.2°C
QNH1017 hPa
Density Alt1,486 ft
Elevation1,768 ft
Report Wrong Elevation
Raw Report
METAR LEHC 161100Z VRB01KT 9999 BKN025 09/08 Q1017=

Extra information for LEHC:More info

Metar Taf Metar & Taf Last 4 Metars F.Rules Stats Wind Profile Meteogram Temp Stats Airport Information Weather charts Add Link Nearby VenuesMetar ALERT Operation Metar Decoded Social comments